sensor_id;sensor_type;location;lat;lon;timestamp;P1;durP1;ratioP1;P2;durP2;ratioP2
16403;SDS011;8311;50.158;8.642;2023-10-08T00:00:07;5.47;;;2.28;;
16403;SDS011;8311;50.158;8.642;2023-10-08T00:03:16;6.32;;;2.20;;
16403;SDS011;8311;50.158;8.642;2023-10-08T00:06:12;5.53;;;2.80;;
16403;SDS011;8311;50.158;8.642;2023-10-08T00:09:06;4.95;;;2.45;;
16403;SDS011;8311;50.158;8.642;2023-10-08T00:12:00;5.13;;;2.20;;
16403;SDS011;8311;50.158;8.642;2023-10-08T00:14:54;5.72;;;2.15;;
16403;SDS011;8311;50.158;8.642;2023-10-08T00:17:51;5.35;;;2.90;;
16403;SDS011;8311;50.158;8.642;2023-10-08T00:20:46;6.72;;;3.28;;
16403;SDS011;8311;50.158;8.642;2023-10-08T00:23:48;5.97;;;2.47;;
16403;SDS011;8311;50.158;8.642;2023-10-08T00:26:44;6.88;;;3.33;;
16403;SDS011;8311;50.158;8.642;2023-10-08T00:29:38;5.55;;;3.25;;
16403;SDS011;8311;50.158;8.642;2023-10-08T00:32:34;6.25;;;2.92;;
16403;SDS011;8311;50.158;8.642;2023-10-08T00:35:28;7.22;;;3.42;;
16403;SDS011;8311;50.158;8.642;2023-10-08T00:38:21;6.75;;;3.33;;
16403;SDS011;8311;50.158;8.642;2023-10-08T00:41:24;5.60;;;3.30;;
16403;SDS011;8311;50.158;8.642;2023-10-08T00:44:20;6.20;;;3.20;;
16403;SDS011;8311;50.158;8.642;2023-10-08T00:47:15;4.32;;;2.80;;
16403;SDS011;8311;50.158;8.642;2023-10-08T00:50:10;6.78;;;3.40;;
16403;SDS011;8311;50.158;8.642;2023-10-08T00:53:12;6.28;;;3.08;;
16403;SDS011;8311;50.158;8.642;2023-10-08T00:56:12;6.22;;;3.25;;
16403;SDS011;8311;50.158;8.642;2023-10-08T00:59:12;8.48;;;4.22;;
16403;SDS011;8311;50.158;8.642;2023-10-08T01:02:07;6.28;;;3.58;;
16403;SDS011;8311;50.158;8.642;2023-10-08T01:05:06;9.63;;;3.88;;
16403;SDS011;8311;50.158;8.642;2023-10-08T01:08:01;5.55;;;3.10;;
16403;SDS011;8311;50.158;8.642;2023-10-08T01:10:57;6.30;;;3.33;;
16403;SDS011;8311;50.158;8.642;2023-10-08T01:13:53;9.77;;;4.13;;
16403;SDS011;8311;50.158;8.642;2023-10-08T01:16:48;6.07;;;3.38;;
16403;SDS011;8311;50.158;8.642;2023-10-08T01:19:43;5.65;;;3.38;;
16403;SDS011;8311;50.158;8.642;2023-10-08T01:22:40;6.55;;;3.65;;
16403;SDS011;8311;50.158;8.642;2023-10-08T01:25:33;6.13;;;3.25;;
16403;SDS011;8311;50.158;8.642;2023-10-08T01:28:26;6.55;;;3.30;;
16403;SDS011;8311;50.158;8.642;2023-10-08T01:31:20;6.30;;;3.03;;
16403;SDS011;8311;50.158;8.642;2023-10-08T01:34:13;7.35;;;3.50;;
16403;SDS011;8311;50.158;8.642;2023-10-08T01:37:08;7.25;;;3.67;;
16403;SDS011;8311;50.158;8.642;2023-10-08T01:40:05;6.57;;;3.85;;
16403;SDS011;8311;50.158;8.642;2023-10-08T01:43:00;4.90;;;2.90;;
16403;SDS011;8311;50.158;8.642;2023-10-08T01:45:55;6.95;;;3.55;;
16403;SDS011;8311;50.158;8.642;2023-10-08T01:48:49;6.28;;;3.08;;
16403;SDS011;8311;50.158;8.642;2023-10-08T01:51:47;7.57;;;3.90;;
16403;SDS011;8311;50.158;8.642;2023-10-08T01:54:42;7.82;;;3.75;;
16403;SDS011;8311;50.158;8.642;2023-10-08T01:57:37;6.82;;;3.40;;
16403;SDS011;8311;50.158;8.642;2023-10-08T02:00:30;5.60;;;3.13;;
16403;SDS011;8311;50.158;8.642;2023-10-08T02:03:23;4.30;;;2.80;;
16403;SDS011;8311;50.158;8.642;2023-10-08T02:06:17;5.72;;;3.60;;
16403;SDS011;8311;50.158;8.642;2023-10-08T02:09:13;7.57;;;3.70;;
16403;SDS011;8311;50.158;8.642;2023-10-08T02:12:06;6.63;;;3.22;;
16403;SDS011;8311;50.158;8.642;2023-10-08T02:15:00;5.88;;;3.17;;
16403;SDS011;8311;50.158;8.642;2023-10-08T02:17:55;6.15;;;3.50;;
16403;SDS011;8311;50.158;8.642;2023-10-08T02:20:50;6.65;;;3.20;;
16403;SDS011;8311;50.158;8.642;2023-10-08T02:23:44;7.38;;;3.55;;
16403;SDS011;8311;50.158;8.642;2023-10-08T02:26:37;6.43;;;3.45;;
16403;SDS011;8311;50.158;8.642;2023-10-08T02:29:31;7.93;;;3.67;;
16403;SDS011;8311;50.158;8.642;2023-10-08T02:32:28;6.22;;;3.20;;
16403;SDS011;8311;50.158;8.642;2023-10-08T02:35:21;6.10;;;3.42;;
16403;SDS011;8311;50.158;8.642;2023-10-08T02:38:16;6.80;;;3.38;;
16403;SDS011;8311;50.158;8.642;2023-10-08T02:41:15;6.93;;;3.65;;
16403;SDS011;8311;50.158;8.642;2023-10-08T02:44:09;8.02;;;3.35;;
16403;SDS011;8311;50.158;8.642;2023-10-08T02:47:05;6.13;;;3.13;;
16403;SDS011;8311;50.158;8.642;2023-10-08T02:50:01;5.10;;;3.10;;
16403;SDS011;8311;50.158;8.642;2023-10-08T02:53:09;8.00;;;3.85;;
16403;SDS011;8311;50.158;8.642;2023-10-08T02:56:03;6.32;;;3.08;;
16403;SDS011;8311;50.158;8.642;2023-10-08T02:59:03;6.00;;;3.08;;
16403;SDS011;8311;50.158;8.642;2023-10-08T03:02:01;6.70;;;3.35;;
16403;SDS011;8311;50.158;8.642;2023-10-08T03:04:55;5.65;;;3.13;;
16403;SDS011;8311;50.158;8.642;2023-10-08T03:07:50;7.90;;;3.55;;
16403;SDS011;8311;50.158;8.642;2023-10-08T03:10:43;7.22;;;3.67;;
16403;SDS011;8311;50.158;8.642;2023-10-08T03:13:37;6.35;;;3.45;;
16403;SDS011;8311;50.158;8.642;2023-10-08T03:16:31;6.80;;;3.40;;
16403;SDS011;8311;50.158;8.642;2023-10-08T03:19:26;7.70;;;3.35;;
16403;SDS011;8311;50.158;8.642;2023-10-08T03:22:19;4.72;;;2.83;;
16403;SDS011;8311;50.158;8.642;2023-10-08T03:25:14;7.45;;;3.45;;
16403;SDS011;8311;50.158;8.642;2023-10-08T03:28:08;6.22;;;3.22;;
16403;SDS011;8311;50.158;8.642;2023-10-08T03:31:04;5.65;;;3.17;;
16403;SDS011;8311;50.158;8.642;2023-10-08T03:34:05;7.40;;;3.22;;
16403;SDS011;8311;50.158;8.642;2023-10-08T03:36:59;5.93;;;3.00;;
16403;SDS011;8311;50.158;8.642;2023-10-08T03:39:59;5.15;;;3.22;;
16403;SDS011;8311;50.158;8.642;2023-10-08T03:43:00;5.38;;;3.03;;
16403;SDS011;8311;50.158;8.642;2023-10-08T03:45:54;5.72;;;3.20;;
16403;SDS011;8311;50.158;8.642;2023-10-08T03:48:50;5.07;;;3.05;;
16403;SDS011;8311;50.158;8.642;2023-10-08T03:51:43;5.25;;;2.97;;
16403;SDS011;8311;50.158;8.642;2023-10-08T03:54:37;5.28;;;3.30;;
16403;SDS011;8311;50.158;8.642;2023-10-08T03:57:40;8.80;;;3.50;;
16403;SDS011;8311;50.158;8.642;2023-10-08T04:00:35;5.50;;;2.90;;
16403;SDS011;8311;50.158;8.642;2023-10-08T04:03:32;5.68;;;3.20;;
16403;SDS011;8311;50.158;8.642;2023-10-08T04:06:43;5.32;;;2.75;;
16403;SDS011;8311;50.158;8.642;2023-10-08T04:09:41;7.53;;;3.58;;
16403;SDS011;8311;50.158;8.642;2023-10-08T04:12:34;6.00;;;3.22;;
16403;SDS011;8311;50.158;8.642;2023-10-08T04:15:35;6.15;;;3.45;;
16403;SDS011;8311;50.158;8.642;2023-10-08T04:18:32;6.40;;;3.10;;
16403;SDS011;8311;50.158;8.642;2023-10-08T04:21:31;7.47;;;3.30;;
16403;SDS011;8311;50.158;8.642;2023-10-08T04:24:26;6.63;;;3.60;;
16403;SDS011;8311;50.158;8.642;2023-10-08T04:27:27;9.05;;;3.58;;
16403;SDS011;8311;50.158;8.642;2023-10-08T04:30:21;6.50;;;3.40;;
16403;SDS011;8311;50.158;8.642;2023-10-08T04:33:25;5.93;;;3.50;;
16403;SDS011;8311;50.158;8.642;2023-10-08T04:36:18;6.65;;;3.47;;
16403;SDS011;8311;50.158;8.642;2023-10-08T04:39:14;5.72;;;3.33;;
16403;SDS011;8311;50.158;8.642;2023-10-08T04:42:12;6.15;;;3.45;;
16403;SDS011;8311;50.158;8.642;2023-10-08T04:45:17;7.32;;;3.25;;
16403;SDS011;8311;50.158;8.642;2023-10-08T04:48:17;6.28;;;3.60;;
16403;SDS011;8311;50.158;8.642;2023-10-08T04:51:14;7.35;;;3.58;;
16403;SDS011;8311;50.158;8.642;2023-10-08T04:54:10;5.15;;;2.92;;
16403;SDS011;8311;50.158;8.642;2023-10-08T04:57:08;6.03;;;3.95;;
16403;SDS011;8311;50.158;8.642;2023-10-08T05:00:07;7.75;;;3.63;;
16403;SDS011;8311;50.158;8.642;2023-10-08T05:03:07;7.60;;;3.92;;
16403;SDS011;8311;50.158;8.642;2023-10-08T05:06:06;8.70;;;4.18;;
16403;SDS011;8311;50.158;8.642;2023-10-08T05:09:02;7.65;;;3.30;;
16403;SDS011;8311;50.158;8.642;2023-10-08T05:12:03;6.35;;;3.13;;
16403;SDS011;8311;50.158;8.642;2023-10-08T05:15:21;6.78;;;3.35;;
16403;SDS011;8311;50.158;8.642;2023-10-08T05:18:24;6.80;;;3.65;;
16403;SDS011;8311;50.158;8.642;2023-10-08T05:21:37;4.78;;;2.78;;
16403;SDS011;8311;50.158;8.642;2023-10-08T05:24:44;5.82;;;3.58;;
16403;SDS011;8311;50.158;8.642;2023-10-08T05:27:57;5.90;;;3.30;;
16403;SDS011;8311;50.158;8.642;2023-10-08T05:31:06;5.65;;;3.30;;
16403;SDS011;8311;50.158;8.642;2023-10-08T05:34:14;7.82;;;3.60;;
16403;SDS011;8311;50.158;8.642;2023-10-08T05:37:19;5.68;;;3.45;;
16403;SDS011;8311;50.158;8.642;2023-10-08T05:40:29;5.85;;;2.88;;
16403;SDS011;8311;50.158;8.642;2023-10-08T05:43:36;5.70;;;3.42;;
16403;SDS011;8311;50.158;8.642;2023-10-08T05:46:48;6.40;;;3.42;;
16403;SDS011;8311;50.158;8.642;2023-10-08T05:50:04;7.25;;;3.30;;
16403;SDS011;8311;50.158;8.642;2023-10-08T05:53:29;7.60;;;3.45;;
16403;SDS011;8311;50.158;8.642;2023-10-08T05:56:37;4.90;;;3.15;;
16403;SDS011;8311;50.158;8.642;2023-10-08T05:59:53;5.30;;;3.17;;
16403;SDS011;8311;50.158;8.642;2023-10-08T06:03:01;6.63;;;3.17;;
16403;SDS011;8311;50.158;8.642;2023-10-08T06:06:04;7.05;;;3.58;;
16403;SDS011;8311;50.158;8.642;2023-10-08T06:09:27;4.95;;;2.97;;
16403;SDS011;8311;50.158;8.642;2023-10-08T06:12:28;6.68;;;3.50;;
16403;SDS011;8311;50.158;8.642;2023-10-08T06:15:24;6.65;;;3.80;;
16403;SDS011;8311;50.158;8.642;2023-10-08T06:18:37;7.90;;;3.10;;
16403;SDS011;8311;50.158;8.642;2023-10-08T06:21:29;7.28;;;3.25;;
16403;SDS011;8311;50.158;8.642;2023-10-08T06:24:23;7.15;;;3.47;;
16403;SDS011;8311;50.158;8.642;2023-10-08T06:27:17;6.85;;;3.88;;
16403;SDS011;8311;50.158;8.642;2023-10-08T06:30:13;7.65;;;3.95;;
16403;SDS011;8311;50.158;8.642;2023-10-08T06:33:09;7.20;;;3.60;;
16403;SDS011;8311;50.158;8.642;2023-10-08T06:36:03;6.07;;;3.13;;
16403;SDS011;8311;50.158;8.642;2023-10-08T06:39:05;6.10;;;3.00;;
16403;SDS011;8311;50.158;8.642;2023-10-08T06:42:03;8.27;;;3.80;;
16403;SDS011;8311;50.158;8.642;2023-10-08T06:45:00;6.43;;;3.63;;
16403;SDS011;8311;50.158;8.642;2023-10-08T06:47:56;9.23;;;3.90;;
16403;SDS011;8311;50.158;8.642;2023-10-08T06:50:50;7.47;;;4.35;;
16403;SDS011;8311;50.158;8.642;2023-10-08T06:53:48;11.10;;;4.30;;
16403;SDS011;8311;50.158;8.642;2023-10-08T06:56:42;10.20;;;3.92;;
16403;SDS011;8311;50.158;8.642;2023-10-08T06:59:38;9.60;;;4.20;;
16403;SDS011;8311;50.158;8.642;2023-10-08T07:02:35;11.05;;;4.38;;
16403;SDS011;8311;50.158;8.642;2023-10-08T07:05:30;8.35;;;4.75;;
16403;SDS011;8311;50.158;8.642;2023-10-08T07:08:28;14.40;;;4.68;;
16403;SDS011;8311;50.158;8.642;2023-10-08T07:11:23;15.55;;;4.82;;
16403;SDS011;8311;50.158;8.642;2023-10-08T07:14:17;13.32;;;4.90;;
16403;SDS011;8311;50.158;8.642;2023-10-08T07:17:10;20.52;;;5.45;;
16403;SDS011;8311;50.158;8.642;2023-10-08T07:20:12;11.00;;;5.18;;
16403;SDS011;8311;50.158;8.642;2023-10-08T07:23:16;11.48;;;4.55;;
16403;SDS011;8311;50.158;8.642;2023-10-08T07:26:12;11.52;;;3.83;;
16403;SDS011;8311;50.158;8.642;2023-10-08T07:29:08;13.98;;;4.15;;
16403;SDS011;8311;50.158;8.642;2023-10-08T07:32:03;7.95;;;3.97;;
16403;SDS011;8311;50.158;8.642;2023-10-08T07:35:02;7.22;;;3.70;;
16403;SDS011;8311;50.158;8.642;2023-10-08T07:38:16;11.38;;;4.20;;
16403;SDS011;8311;50.158;8.642;2023-10-08T07:41:09;15.27;;;4.38;;
16403;SDS011;8311;50.158;8.642;2023-10-08T07:44:04;11.25;;;4.28;;
16403;SDS011;8311;50.158;8.642;2023-10-08T07:46:58;10.48;;;4.38;;
16403;SDS011;8311;50.158;8.642;2023-10-08T07:49:51;10.30;;;4.05;;
16403;SDS011;8311;50.158;8.642;2023-10-08T07:52:45;10.80;;;4.72;;
16403;SDS011;8311;50.158;8.642;2023-10-08T07:55:40;9.55;;;4.38;;
16403;SDS011;8311;50.158;8.642;2023-10-08T07:58:34;11.63;;;4.03;;
16403;SDS011;8311;50.158;8.642;2023-10-08T08:01:29;10.20;;;3.65;;
16403;SDS011;8311;50.158;8.642;2023-10-08T08:04:26;8.88;;;3.83;;
16403;SDS011;8311;50.158;8.642;2023-10-08T08:07:24;13.88;;;4.43;;
16403;SDS011;8311;50.158;8.642;2023-10-08T08:10:18;8.40;;;3.75;;
16403;SDS011;8311;50.158;8.642;2023-10-08T08:13:16;12.35;;;4.10;;
16403;SDS011;8311;50.158;8.642;2023-10-08T08:16:12;7.53;;;3.67;;
16403;SDS011;8311;50.158;8.642;2023-10-08T08:19:09;7.78;;;3.97;;
16403;SDS011;8311;50.158;8.642;2023-10-08T08:22:04;6.85;;;3.38;;
16403;SDS011;8311;50.158;8.642;2023-10-08T08:24:58;8.45;;;3.83;;
16403;SDS011;8311;50.158;8.642;2023-10-08T08:28:06;9.13;;;3.50;;
16403;SDS011;8311;50.158;8.642;2023-10-08T08:31:10;8.57;;;3.22;;
16403;SDS011;8311;50.158;8.642;2023-10-08T08:34:06;8.48;;;3.65;;
16403;SDS011;8311;50.158;8.642;2023-10-08T08:37:05;6.47;;;3.17;;
16403;SDS011;8311;50.158;8.642;2023-10-08T08:39:59;10.25;;;4.15;;
16403;SDS011;8311;50.158;8.642;2023-10-08T08:42:52;7.43;;;3.30;;
16403;SDS011;8311;50.158;8.642;2023-10-08T08:45:46;8.23;;;4.13;;
16403;SDS011;8311;50.158;8.642;2023-10-08T08:48:43;13.80;;;3.53;;
16403;SDS011;8311;50.158;8.642;2023-10-08T08:51:37;9.88;;;3.47;;
16403;SDS011;8311;50.158;8.642;2023-10-08T08:54:32;6.88;;;3.30;;
16403;SDS011;8311;50.158;8.642;2023-10-08T08:57:28;10.23;;;3.47;;
16403;SDS011;8311;50.158;8.642;2023-10-08T09:00:22;11.02;;;3.70;;
16403;SDS011;8311;50.158;8.642;2023-10-08T09:03:20;8.63;;;3.78;;
16403;SDS011;8311;50.158;8.642;2023-10-08T09:06:23;6.85;;;3.67;;
16403;SDS011;8311;50.158;8.642;2023-10-08T09:09:17;7.88;;;3.63;;
16403;SDS011;8311;50.158;8.642;2023-10-08T09:12:16;6.95;;;3.40;;
16403;SDS011;8311;50.158;8.642;2023-10-08T09:15:10;6.30;;;3.13;;
16403;SDS011;8311;50.158;8.642;2023-10-08T09:18:04;6.50;;;3.13;;
16403;SDS011;8311;50.158;8.642;2023-10-08T09:21:07;9.00;;;3.33;;
16403;SDS011;8311;50.158;8.642;2023-10-08T09:24:04;6.70;;;3.22;;
16403;SDS011;8311;50.158;8.642;2023-10-08T09:27:03;9.65;;;3.17;;
16403;SDS011;8311;50.158;8.642;2023-10-08T09:29:57;10.90;;;3.88;;
16403;SDS011;8311;50.158;8.642;2023-10-08T09:32:51;9.55;;;3.95;;
16403;SDS011;8311;50.158;8.642;2023-10-08T09:35:47;8.50;;;3.25;;
16403;SDS011;8311;50.158;8.642;2023-10-08T09:38:43;6.97;;;3.38;;
16403;SDS011;8311;50.158;8.642;2023-10-08T09:41:40;9.57;;;3.45;;
16403;SDS011;8311;50.158;8.642;2023-10-08T09:44:35;7.18;;;3.20;;
16403;SDS011;8311;50.158;8.642;2023-10-08T09:47:29;7.20;;;2.92;;
16403;SDS011;8311;50.158;8.642;2023-10-08T09:50:26;5.28;;;3.08;;
16403;SDS011;8311;50.158;8.642;2023-10-08T09:53:22;6.57;;;2.85;;
16403;SDS011;8311;50.158;8.642;2023-10-08T09:56:27;7.15;;;3.45;;
16403;SDS011;8311;50.158;8.642;2023-10-08T09:59:24;5.55;;;3.17;;
16403;SDS011;8311;50.158;8.642;2023-10-08T10:02:20;6.85;;;2.83;;
16403;SDS011;8311;50.158;8.642;2023-10-08T10:05:19;6.28;;;3.08;;
16403;SDS011;8311;50.158;8.642;2023-10-08T10:08:13;8.30;;;3.45;;
16403;SDS011;8311;50.158;8.642;2023-10-08T10:11:07;6.40;;;3.28;;
16403;SDS011;8311;50.158;8.642;2023-10-08T10:14:01;5.47;;;3.00;;
16403;SDS011;8311;50.158;8.642;2023-10-08T10:17:14;5.22;;;3.05;;
16403;SDS011;8311;50.158;8.642;2023-10-08T10:20:31;9.70;;;3.22;;
16403;SDS011;8311;50.158;8.642;2023-10-08T10:23:36;6.80;;;3.33;;
16403;SDS011;8311;50.158;8.642;2023-10-08T10:26:33;5.93;;;2.67;;
16403;SDS011;8311;50.158;8.642;2023-10-08T10:29:26;7.25;;;3.20;;
16403;SDS011;8311;50.158;8.642;2023-10-08T10:32:25;5.15;;;2.95;;
16403;SDS011;8311;50.158;8.642;2023-10-08T10:35:19;6.43;;;3.05;;
16403;SDS011;8311;50.158;8.642;2023-10-08T10:38:12;5.80;;;3.20;;
16403;SDS011;8311;50.158;8.642;2023-10-08T10:41:10;6.05;;;2.53;;
16403;SDS011;8311;50.158;8.642;2023-10-08T10:44:03;5.75;;;2.60;;
16403;SDS011;8311;50.158;8.642;2023-10-08T10:47:00;5.80;;;3.17;;
16403;SDS011;8311;50.158;8.642;2023-10-08T10:50:08;4.47;;;2.58;;
16403;SDS011;8311;50.158;8.642;2023-10-08T10:53:24;5.07;;;2.42;;
16403;SDS011;8311;50.158;8.642;2023-10-08T10:56:19;7.65;;;3.22;;
16403;SDS011;8311;50.158;8.642;2023-10-08T10:59:21;5.97;;;2.90;;
16403;SDS011;8311;50.158;8.642;2023-10-08T11:02:19;5.70;;;2.53;;
16403;SDS011;8311;50.158;8.642;2023-10-08T11:05:14;4.10;;;2.45;;
16403;SDS011;8311;50.158;8.642;2023-10-08T11:08:11;5.47;;;2.78;;
16403;SDS011;8311;50.158;8.642;2023-10-08T11:11:07;6.18;;;2.78;;
16403;SDS011;8311;50.158;8.642;2023-10-08T11:14:03;5.20;;;2.67;;
16403;SDS011;8311;50.158;8.642;2023-10-08T11:16:57;4.47;;;2.60;;
16403;SDS011;8311;50.158;8.642;2023-10-08T11:19:50;6.03;;;3.10;;
16403;SDS011;8311;50.158;8.642;2023-10-08T11:22:44;6.25;;;3.15;;
16403;SDS011;8311;50.158;8.642;2023-10-08T11:25:37;5.47;;;2.78;;
16403;SDS011;8311;50.158;8.642;2023-10-08T11:28:35;5.90;;;2.78;;
16403;SDS011;8311;50.158;8.642;2023-10-08T11:31:35;6.05;;;2.90;;
16403;SDS011;8311;50.158;8.642;2023-10-08T11:34:31;5.63;;;2.85;;
16403;SDS011;8311;50.158;8.642;2023-10-08T11:37:30;4.95;;;2.55;;
16403;SDS011;8311;50.158;8.642;2023-10-08T11:40:27;5.93;;;2.60;;
16403;SDS011;8311;50.158;8.642;2023-10-08T11:43:22;5.45;;;2.75;;
16403;SDS011;8311;50.158;8.642;2023-10-08T11:46:16;5.25;;;2.70;;
16403;SDS011;8311;50.158;8.642;2023-10-08T11:49:10;5.95;;;2.92;;
16403;SDS011;8311;50.158;8.642;2023-10-08T11:52:08;5.40;;;2.70;;
16403;SDS011;8311;50.158;8.642;2023-10-08T11:55:03;5.38;;;2.60;;
16403;SDS011;8311;50.158;8.642;2023-10-08T11:57:59;5.13;;;2.88;;
16403;SDS011;8311;50.158;8.642;2023-10-08T12:01:01;4.68;;;2.80;;
16403;SDS011;8311;50.158;8.642;2023-10-08T12:03:55;3.72;;;2.25;;
16403;SDS011;8311;50.158;8.642;2023-10-08T12:06:51;5.55;;;2.92;;
16403;SDS011;8311;50.158;8.642;2023-10-08T12:09:44;4.63;;;2.65;;
16403;SDS011;8311;50.158;8.642;2023-10-08T12:12:40;5.45;;;2.70;;
16403;SDS011;8311;50.158;8.642;2023-10-08T12:15:34;4.32;;;2.20;;
16403;SDS011;8311;50.158;8.642;2023-10-08T12:18:30;5.20;;;2.67;;
16403;SDS011;8311;50.158;8.642;2023-10-08T12:21:26;4.53;;;2.40;;
16403;SDS011;8311;50.158;8.642;2023-10-08T12:24:21;4.60;;;2.20;;
16403;SDS011;8311;50.158;8.642;2023-10-08T12:27:13;4.95;;;2.50;;
16403;SDS011;8311;50.158;8.642;2023-10-08T12:30:09;4.18;;;2.15;;
16403;SDS011;8311;50.158;8.642;2023-10-08T12:33:05;4.60;;;2.22;;
16403;SDS011;8311;50.158;8.642;2023-10-08T12:35:58;5.07;;;2.20;;
16403;SDS011;8311;50.158;8.642;2023-10-08T12:39:03;5.13;;;2.38;;
16403;SDS011;8311;50.158;8.642;2023-10-08T12:42:03;3.58;;;2.38;;
16403;SDS011;8311;50.158;8.642;2023-10-08T12:44:57;4.03;;;2.45;;
16403;SDS011;8311;50.158;8.642;2023-10-08T12:47:53;5.60;;;2.60;;
16403;SDS011;8311;50.158;8.642;2023-10-08T12:50:47;4.07;;;2.25;;
16403;SDS011;8311;50.158;8.642;2023-10-08T12:53:45;4.07;;;2.17;;
16403;SDS011;8311;50.158;8.642;2023-10-08T12:56:50;4.18;;;2.28;;
16403;SDS011;8311;50.158;8.642;2023-10-08T12:59:47;5.10;;;2.67;;
16403;SDS011;8311;50.158;8.642;2023-10-08T13:02:43;4.18;;;2.42;;
16403;SDS011;8311;50.158;8.642;2023-10-08T13:05:45;3.92;;;2.25;;
16403;SDS011;8311;50.158;8.642;2023-10-08T13:08:40;4.57;;;2.35;;
16403;SDS011;8311;50.158;8.642;2023-10-08T13:11:34;4.03;;;2.00;;
16403;SDS011;8311;50.158;8.642;2023-10-08T13:14:30;3.00;;;2.10;;
16403;SDS011;8311;50.158;8.642;2023-10-08T13:17:27;3.80;;;2.03;;
16403;SDS011;8311;50.158;8.642;2023-10-08T13:20:23;4.57;;;2.35;;
16403;SDS011;8311;50.158;8.642;2023-10-08T13:23:18;2.90;;;1.90;;
16403;SDS011;8311;50.158;8.642;2023-10-08T13:26:16;3.28;;;1.92;;
16403;SDS011;8311;50.158;8.642;2023-10-08T13:29:10;3.80;;;2.20;;
16403;SDS011;8311;50.158;8.642;2023-10-08T13:32:03;3.85;;;2.25;;
16403;SDS011;8311;50.158;8.642;2023-10-08T13:34:57;3.97;;;2.58;;
16403;SDS011;8311;50.158;8.642;2023-10-08T13:37:52;3.30;;;1.73;;
16403;SDS011;8311;50.158;8.642;2023-10-08T13:40:47;3.92;;;1.88;;
16403;SDS011;8311;50.158;8.642;2023-10-08T13:43:55;4.40;;;2.42;;
16403;SDS011;8311;50.158;8.642;2023-10-08T13:46:57;4.38;;;2.22;;
16403;SDS011;8311;50.158;8.642;2023-10-08T13:49:52;4.82;;;2.42;;
16403;SDS011;8311;50.158;8.642;2023-10-08T13:52:46;3.75;;;2.00;;
16403;SDS011;8311;50.158;8.642;2023-10-08T13:55:39;3.90;;;2.17;;
16403;SDS011;8311;50.158;8.642;2023-10-08T13:58:37;3.90;;;2.17;;
16403;SDS011;8311;50.158;8.642;2023-10-08T14:01:38;4.18;;;2.28;;
16403;SDS011;8311;50.158;8.642;2023-10-08T14:04:35;2.90;;;1.80;;
16403;SDS011;8311;50.158;8.642;2023-10-08T14:07:32;3.30;;;1.73;;
16403;SDS011;8311;50.158;8.642;2023-10-08T14:10:26;3.88;;;2.15;;
16403;SDS011;8311;50.158;8.642;2023-10-08T14:13:21;3.42;;;2.00;;
16403;SDS011;8311;50.158;8.642;2023-10-08T14:16:16;3.67;;;1.98;;
16403;SDS011;8311;50.158;8.642;2023-10-08T14:19:16;2.65;;;1.75;;
16403;SDS011;8311;50.158;8.642;2023-10-08T14:22:09;3.25;;;2.10;;
16403;SDS011;8311;50.158;8.642;2023-10-08T14:25:08;3.60;;;1.90;;
16403;SDS011;8311;50.158;8.642;2023-10-08T14:28:04;2.97;;;2.03;;
16403;SDS011;8311;50.158;8.642;2023-10-08T14:31:00;3.63;;;2.00;;
16403;SDS011;8311;50.158;8.642;2023-10-08T14:33:54;3.85;;;1.98;;
16403;SDS011;8311;50.158;8.642;2023-10-08T14:37:11;3.22;;;1.77;;
16403;SDS011;8311;50.158;8.642;2023-10-08T14:40:23;2.67;;;1.77;;
16403;SDS011;8311;50.158;8.642;2023-10-08T14:43:30;4.53;;;2.30;;
16403;SDS011;8311;50.158;8.642;2023-10-08T14:46:26;2.88;;;1.85;;
16403;SDS011;8311;50.158;8.642;2023-10-08T14:49:22;4.10;;;2.20;;
16403;SDS011;8311;50.158;8.642;2023-10-08T14:52:17;3.03;;;2.05;;
16403;SDS011;8311;50.158;8.642;2023-10-08T14:55:11;3.85;;;2.20;;
16403;SDS011;8311;50.158;8.642;2023-10-08T14:58:04;2.95;;;1.77;;
16403;SDS011;8311;50.158;8.642;2023-10-08T15:00:59;2.80;;;1.67;;
16403;SDS011;8311;50.158;8.642;2023-10-08T15:03:53;3.83;;;1.90;;
16403;SDS011;8311;50.158;8.642;2023-10-08T15:06:47;4.00;;;2.05;;
16403;SDS011;8311;50.158;8.642;2023-10-08T15:09:42;1.80;;;1.35;;
16403;SDS011;8311;50.158;8.642;2023-10-08T15:12:36;3.63;;;1.98;;
16403;SDS011;8311;50.158;8.642;2023-10-08T15:15:29;3.65;;;1.70;;
16403;SDS011;8311;50.158;8.642;2023-10-08T15:18:26;3.75;;;2.20;;
16403;SDS011;8311;50.158;8.642;2023-10-08T15:21:25;3.00;;;1.77;;
16403;SDS011;8311;50.158;8.642;2023-10-08T15:24:18;4.78;;;1.95;;
16403;SDS011;8311;50.158;8.642;2023-10-08T15:27:14;2.70;;;1.70;;
16403;SDS011;8311;50.158;8.642;2023-10-08T15:30:07;3.28;;;1.90;;
16403;SDS011;8311;50.158;8.642;2023-10-08T15:33:04;2.53;;;1.50;;
16403;SDS011;8311;50.158;8.642;2023-10-08T15:35:59;2.95;;;2.13;;
16403;SDS011;8311;50.158;8.642;2023-10-08T15:38:53;2.95;;;1.60;;
16403;SDS011;8311;50.158;8.642;2023-10-08T15:41:46;3.85;;;1.92;;
16403;SDS011;8311;50.158;8.642;2023-10-08T15:44:41;2.50;;;1.65;;
16403;SDS011;8311;50.158;8.642;2023-10-08T15:47:35;2.42;;;1.58;;
16403;SDS011;8311;50.158;8.642;2023-10-08T15:50:29;3.42;;;1.83;;
16403;SDS011;8311;50.158;8.642;2023-10-08T15:53:25;2.13;;;1.40;;
16403;SDS011;8311;50.158;8.642;2023-10-08T15:56:18;3.60;;;1.70;;
16403;SDS011;8311;50.158;8.642;2023-10-08T15:59:12;3.10;;;1.52;;
16403;SDS011;8311;50.158;8.642;2023-10-08T16:02:06;3.65;;;1.88;;
16403;SDS011;8311;50.158;8.642;2023-10-08T16:05:00;4.10;;;1.60;;
16403;SDS011;8311;50.158;8.642;2023-10-08T16:07:54;3.33;;;1.92;;
16403;SDS011;8311;50.158;8.642;2023-10-08T16:10:50;2.17;;;1.50;;
16403;SDS011;8311;50.158;8.642;2023-10-08T16:13:44;2.13;;;1.52;;
16403;SDS011;8311;50.158;8.642;2023-10-08T16:16:37;2.17;;;1.40;;
16403;SDS011;8311;50.158;8.642;2023-10-08T16:19:31;3.15;;;1.70;;
16403;SDS011;8311;50.158;8.642;2023-10-08T16:22:25;2.97;;;1.38;;
16403;SDS011;8311;50.158;8.642;2023-10-08T16:25:20;2.78;;;1.70;;
16403;SDS011;8311;50.158;8.642;2023-10-08T16:28:13;3.22;;;1.60;;
16403;SDS011;8311;50.158;8.642;2023-10-08T16:31:09;3.00;;;1.80;;
16403;SDS011;8311;50.158;8.642;2023-10-08T16:34:03;3.17;;;1.77;;
16403;SDS011;8311;50.158;8.642;2023-10-08T16:36:57;2.45;;;1.73;;
16403;SDS011;8311;50.158;8.642;2023-10-08T16:39:51;2.72;;;1.60;;
16403;SDS011;8311;50.158;8.642;2023-10-08T16:42:44;3.38;;;1.80;;
16403;SDS011;8311;50.158;8.642;2023-10-08T16:45:38;3.28;;;1.80;;
16403;SDS011;8311;50.158;8.642;2023-10-08T16:48:31;3.95;;;1.92;;
16403;SDS011;8311;50.158;8.642;2023-10-08T16:51:25;2.47;;;1.45;;
16403;SDS011;8311;50.158;8.642;2023-10-08T16:54:20;3.00;;;1.77;;
16403;SDS011;8311;50.158;8.642;2023-10-08T16:57:14;2.67;;;1.50;;
16403;SDS011;8311;50.158;8.642;2023-10-08T17:00:07;3.55;;;1.50;;
16403;SDS011;8311;50.158;8.642;2023-10-08T17:03:04;2.13;;;1.33;;
16403;SDS011;8311;50.158;8.642;2023-10-08T17:05:58;3.05;;;1.60;;
16403;SDS011;8311;50.158;8.642;2023-10-08T17:08:59;2.13;;;1.30;;
16403;SDS011;8311;50.158;8.642;2023-10-08T17:11:54;2.42;;;1.50;;
16403;SDS011;8311;50.158;8.642;2023-10-08T17:14:48;2.45;;;1.40;;
16403;SDS011;8311;50.158;8.642;2023-10-08T17:17:42;2.30;;;1.60;;
16403;SDS011;8311;50.158;8.642;2023-10-08T17:20:37;2.22;;;1.40;;
16403;SDS011;8311;50.158;8.642;2023-10-08T17:23:31;3.80;;;1.60;;
16403;SDS011;8311;50.158;8.642;2023-10-08T17:26:24;2.30;;;1.40;;
16403;SDS011;8311;50.158;8.642;2023-10-08T17:29:19;3.15;;;1.60;;
16403;SDS011;8311;50.158;8.642;2023-10-08T17:32:12;2.78;;;1.40;;
16403;SDS011;8311;50.158;8.642;2023-10-08T17:35:05;2.55;;;1.40;;
16403;SDS011;8311;50.158;8.642;2023-10-08T17:38:00;2.08;;;1.35;;
16403;SDS011;8311;50.158;8.642;2023-10-08T17:40:56;2.53;;;1.55;;
16403;SDS011;8311;50.158;8.642;2023-10-08T17:43:55;1.90;;;1.25;;
16403;SDS011;8311;50.158;8.642;2023-10-08T17:46:50;2.67;;;1.50;;
16403;SDS011;8311;50.158;8.642;2023-10-08T17:49:44;3.45;;;1.63;;
16403;SDS011;8311;50.158;8.642;2023-10-08T17:52:38;2.42;;;1.48;;
16403;SDS011;8311;50.158;8.642;2023-10-08T17:55:35;3.28;;;1.50;;
16403;SDS011;8311;50.158;8.642;2023-10-08T17:58:28;2.38;;;1.35;;
16403;SDS011;8311;50.158;8.642;2023-10-08T18:01:22;2.00;;;1.30;;